createdAt,value
2019-04-11T00:01:05.973Z,55.85
2019-04-11T00:03:33.520Z,55.34
2019-04-11T00:06:01.413Z,55.25
2019-04-11T00:08:28.773Z,55.38
2019-04-11T00:10:57.573Z,55.49
2019-04-11T00:13:28.324Z,55.74
2019-04-11T00:15:54.924Z,55.96
2019-04-11T00:18:22.871Z,55.93
2019-04-11T00:20:51.178Z,55.84
2019-04-11T00:23:18.504Z,55.80
2019-04-11T00:25:48.147Z,55.99
2019-04-11T00:28:15.417Z,56.07
2019-04-11T00:30:42.437Z,56.06
2019-04-11T00:33:09.887Z,56.15
2019-04-11T00:35:37.028Z,56.17
2019-04-11T00:38:04.193Z,56.10
2019-04-11T00:40:31.524Z,56.06
2019-04-11T00:42:58.981Z,56.42
2019-04-11T00:45:29.646Z,56.62
2019-04-11T00:47:57.954Z,56.75
2019-04-11T00:50:25.327Z,56.96
2019-04-11T00:52:52.429Z,56.79
2019-04-11T00:55:19.679Z,57.03
2019-04-11T00:57:47.376Z,57.33
2019-04-11T01:00:15.220Z,57.52
2019-04-11T01:02:43.339Z,57.59
2019-04-11T01:05:11.137Z,57.30
2019-04-11T01:07:38.728Z,57.51
2019-04-11T01:10:06.881Z,57.63
2019-04-11T01:12:34.429Z,57.71
2019-04-11T01:15:04.912Z,57.72
2019-04-11T01:17:32.246Z,57.86
2019-04-11T01:19:59.601Z,57.45
2019-04-11T01:22:26.629Z,57.54
2019-04-11T01:24:53.684Z,57.75
2019-04-11T01:27:21.615Z,57.82
2019-04-11T01:29:49.511Z,58.09
2019-04-11T01:32:17.988Z,58.11
2019-04-11T01:34:45.259Z,58.21
2019-04-11T01:37:16.299Z,58.44
2019-04-11T01:39:49.999Z,58.79
2019-04-11T01:42:17.697Z,58.76
2019-04-11T01:44:47.481Z,58.96
2019-04-11T01:47:20.913Z,58.96
2019-04-11T01:49:48.475Z,59.07
2019-04-11T01:52:15.476Z,59.07
2019-04-11T01:54:42.812Z,59.34
2019-04-11T01:57:11.765Z,59.29
2019-04-11T01:59:39.585Z,59.37
2019-04-11T02:02:26.441Z,59.27
2019-04-11T02:05:00.757Z,59.45
2019-04-11T02:07:28.894Z,59.53
2019-04-11T02:09:56.766Z,59.54
2019-04-11T02:12:23.854Z,59.64
2019-04-11T02:14:52.093Z,60.08
2019-04-11T02:17:19.355Z,59.75
2019-04-11T02:19:46.671Z,60.12
2019-04-11T02:22:35.763Z,60.07
2019-04-11T02:25:15.004Z,60.35
2019-04-11T02:27:42.372Z,60.17
2019-04-11T02:30:11.833Z,60.04
2019-04-11T02:32:40.462Z,60.34
2019-04-11T02:35:08.703Z,60.28
2019-04-11T02:37:38.009Z,60.15
2019-04-11T02:40:07.527Z,60.23
2019-04-11T02:42:35.753Z,60.33
2019-04-11T02:45:19.814Z,60.41
2019-04-11T02:47:35.661Z,60.29
2019-04-11T02:50:03.648Z,60.62
2019-04-11T02:52:31.315Z,60.57
2019-04-11T02:54:58.790Z,60.67
2019-04-11T02:57:26.551Z,60.68
2019-04-11T02:59:56.024Z,60.59
2019-04-11T03:02:23.848Z,60.39
2019-04-11T03:04:52.857Z,60.52
2019-04-11T03:07:20.583Z,60.76
2019-04-11T03:09:48.806Z,60.80
2019-04-11T03:12:19.087Z,60.88
2019-04-11T03:15:05.624Z,61.11
2019-04-11T03:17:23.030Z,61.14
2019-04-11T03:19:59.472Z,61.42
2019-04-11T03:22:16.180Z,61.41
2019-04-11T03:24:44.754Z,61.25
2019-04-11T03:27:12.137Z,61.27
2019-04-11T03:29:40.790Z,61.37
2019-04-11T03:32:51.306Z,61.36
2019-04-11T03:35:31.624Z,61.45
2019-04-11T03:37:40.023Z,61.45
2019-04-11T03:40:00.751Z,61.35
2019-04-11T03:42:25.027Z,61.17
2019-04-11T03:44:46.398Z,61.33
2019-04-11T03:47:25.065Z,61.58
2019-04-11T03:49:49.101Z,61.41
2019-04-11T03:52:12.231Z,61.67
2019-04-11T03:54:40.993Z,61.58
2019-04-11T03:57:09.872Z,61.48
2019-04-11T03:59:40.728Z,61.57
2019-04-11T04:02:16.438Z,61.36
2019-04-11T04:04:45.677Z,61.48
2019-04-11T04:07:14.896Z,61.40
2019-04-11T04:09:43.824Z,61.22
2019-04-11T04:12:13.405Z,61.49
2019-04-11T04:15:04.578Z,61.60
2019-04-11T04:18:05.695Z,61.66
2019-04-11T04:21:01.976Z,61.73
2019-04-11T04:23:35.779Z,62.44
2019-04-11T04:26:09.580Z,62.28
2019-04-11T04:28:35.766Z,62.33
2019-04-11T04:31:04.613Z,62.58
2019-04-11T04:33:35.071Z,62.40
2019-04-11T04:36:02.360Z,62.40
2019-04-11T04:38:31.608Z,62.61
2019-04-11T04:41:10.005Z,62.54
2019-04-11T04:43:29.392Z,62.99
2019-04-11T04:46:13.722Z,62.42
2019-04-11T04:48:27.147Z,62.49
2019-04-11T04:50:57.102Z,62.57
2019-04-11T04:53:26.672Z,62.46
2019-04-11T04:55:54.266Z,62.56
2019-04-11T04:58:24.855Z,62.42
2019-04-11T05:00:54.284Z,62.18
2019-04-11T05:03:26.825Z,62.08
2019-04-11T05:05:58.311Z,62.39
2019-04-11T05:08:30.617Z,61.88
2019-04-11T05:11:04.543Z,61.88
2019-04-11T05:13:34.437Z,61.48
2019-04-11T05:16:16.055Z,61.55
2019-04-11T05:18:37.366Z,61.25
2019-04-11T05:21:10.700Z,60.55
2019-04-11T05:23:42.850Z,60.77
2019-04-11T05:26:17.296Z,59.97
2019-04-11T05:28:47.290Z,59.89
2019-04-11T05:31:20.553Z,59.84
2019-04-11T05:33:47.863Z,59.58
2019-04-11T05:36:14.952Z,59.76
2019-04-11T05:38:42.327Z,59.75
2019-04-11T05:41:12.172Z,59.47
2019-04-11T05:43:40.113Z,59.40
2019-04-11T05:46:26.455Z,58.65
2019-04-11T05:48:58.946Z,58.56
2019-04-11T05:51:24.908Z,58.33
2019-04-11T05:53:54.506Z,57.60
2019-04-11T05:56:27.816Z,57.82
2019-04-11T05:58:59.859Z,57.54
2019-04-11T06:01:36.243Z,56.98
2019-04-11T06:04:13.132Z,56.60
2019-04-11T06:07:00.138Z,55.12
2019-04-11T06:09:33.746Z,56.10
2019-04-11T06:12:21.651Z,57.10
2019-04-11T06:14:58.422Z,56.06
2019-04-11T06:17:27.677Z,55.40
2019-04-11T06:20:29.789Z,54.92
2019-04-11T06:23:05.148Z,54.17
2019-04-11T06:25:43.617Z,53.44
2019-04-11T06:28:18.011Z,52.30
2019-04-11T06:31:10.723Z,52.69
2019-04-11T06:33:42.783Z,52.22
2019-04-11T06:36:35.557Z,51.08
2019-04-11T06:39:16.534Z,52.44
2019-04-11T06:42:07.495Z,50.60
2019-04-11T06:44:50.129Z,50.17
2019-04-11T06:47:47.398Z,49.48
2019-04-11T06:50:33.353Z,50.31
2019-04-11T06:53:00.727Z,49.44
2019-04-11T06:55:45.134Z,48.83
2019-04-11T06:58:16.355Z,49.34
2019-04-11T07:00:49.909Z,48.99
2019-04-11T07:03:25.513Z,48.95
2019-04-11T07:05:51.074Z,48.56
2019-04-11T07:08:20.237Z,47.83
2019-04-11T07:10:55.434Z,46.84
2019-04-11T07:13:46.250Z,47.52
2019-04-11T07:16:15.431Z,47.30
2019-04-11T07:19:17.728Z,45.48
2019-04-11T07:21:45.943Z,44.63
2019-04-11T07:24:32.429Z,43.82
2019-04-11T07:27:09.713Z,44.53
2019-04-11T07:30:05.481Z,43.74
2019-04-11T07:32:34.259Z,43.52
2019-04-11T07:35:19.707Z,44.20
2019-04-11T07:37:49.359Z,43.46
2019-04-11T07:40:36.678Z,43.34
2019-04-11T07:43:13.316Z,42.00
2019-04-11T07:46:09.033Z,42.21
2019-04-11T07:48:38.935Z,42.28
2019-04-11T07:51:17.482Z,40.46
2019-04-11T07:53:48.120Z,41.80
2019-04-11T07:56:39.917Z,40.53
2019-04-11T07:59:16.574Z,41.79
2019-04-11T08:02:10.288Z,40.84
2019-04-11T08:04:57.566Z,41.05
2019-04-11T08:07:44.812Z,41.05
2019-04-11T08:10:16.853Z,41.17
2019-04-11T08:12:43.878Z,40.31
2019-04-11T08:15:41.925Z,39.13
2019-04-11T08:18:32.728Z,39.37
2019-04-11T08:21:26.205Z,38.49
2019-04-11T08:23:56.269Z,40.04
2019-04-11T08:26:52.584Z,38.99
2019-04-11T08:29:24.343Z,39.27
2019-04-11T08:32:11.697Z,39.94
2019-04-11T08:34:46.479Z,39.17
2019-04-11T08:37:31.656Z,37.81
2019-04-11T08:39:59.683Z,38.66
2019-04-11T08:42:50.739Z,39.56
2019-04-11T08:45:19.556Z,37.82
2019-04-11T08:47:52.670Z,40.05
2019-04-11T08:50:21.332Z,37.72
2019-04-11T08:53:08.749Z,37.50
2019-04-11T08:55:55.298Z,38.35
2019-04-11T08:58:23.159Z,37.41
2019-04-11T09:00:56.169Z,37.67
2019-04-11T09:03:59.793Z,36.47
2019-04-11T09:06:24.889Z,36.48
2019-04-11T09:09:11.124Z,35.38
2019-04-11T09:11:58.330Z,35.02
2019-04-11T09:14:46.385Z,36.04
2019-04-11T09:17:34.724Z,35.56
2019-04-11T09:20:38.091Z,35.47
2019-04-11T09:23:11.430Z,35.02
2019-04-11T09:26:14.034Z,34.30
2019-04-11T09:28:46.436Z,34.67
2019-04-11T09:31:42.172Z,33.40
2019-04-11T09:34:28.555Z,33.95
2019-04-11T09:36:58.824Z,32.45
2019-04-11T09:39:47.571Z,33.82
2019-04-11T09:42:43.494Z,33.73
2019-04-11T09:45:45.788Z,33.27
2019-04-11T09:48:42.279Z,32.90
2019-04-11T09:51:33.870Z,32.74
2019-04-11T09:54:22.172Z,31.73
2019-04-11T09:57:18.539Z,30.96
2019-04-11T10:00:18.542Z,30.15
2019-04-11T10:02:53.007Z,30.78
2019-04-11T10:05:27.238Z,29.05
2019-04-11T10:08:10.690Z,27.50
2019-04-11T10:11:17.749Z,26.67
2019-04-11T10:14:17.509Z,26.39
2019-04-11T10:17:04.431Z,28.53
2019-04-11T10:19:54.337Z,28.31
2019-04-11T10:22:41.535Z,28.17
2019-04-11T10:25:32.801Z,27.54
2019-04-11T10:28:29.541Z,28.67
2019-04-11T10:31:04.242Z,28.79
2019-04-11T10:33:44.791Z,27.90
2019-04-11T10:36:34.977Z,27.29
2019-04-11T10:39:27.662Z,25.53
2019-04-11T10:42:02.220Z,25.28
2019-04-11T10:45:00.407Z,25.24
2019-04-11T10:47:29.184Z,25.49
2019-04-11T10:50:19.472Z,24.52
2019-04-11T10:52:58.503Z,23.22
2019-04-11T10:55:48.090Z,24.03
2019-04-11T10:58:19.074Z,24.59
2019-04-11T11:00:55.668Z,26.77
2019-04-11T11:03:30.727Z,28.19
2019-04-11T11:05:59.656Z,29.33
2019-04-11T11:09:12.225Z,27.45
2019-04-11T11:11:48.431Z,25.71
2019-04-11T11:14:55.907Z,28.09
2019-04-11T11:18:34.973Z,29.16
2019-04-11T11:21:01.709Z,27.71
2019-04-11T11:23:56.127Z,25.78
2019-04-11T11:26:43.366Z,25.49
2019-04-11T11:29:37.582Z,25.47
2019-04-11T11:32:16.757Z,23.34
2019-04-11T11:35:05.242Z,27.42
2019-04-11T11:37:49.183Z,26.04
2019-04-11T11:40:38.538Z,25.28
2019-04-11T11:43:30.925Z,23.93
2019-04-11T11:46:16.069Z,24.46
2019-04-11T11:48:59.195Z,21.79
2019-04-11T11:51:33.271Z,21.55
2019-04-11T11:54:19.907Z,22.05
2019-04-11T11:56:48.940Z,22.68
2019-04-11T11:59:23.038Z,22.71
2019-04-11T12:01:56.071Z,21.88
2019-04-11T12:04:48.761Z,24.26
2019-04-11T12:07:17.460Z,25.39
2019-04-11T12:10:02.981Z,22.82
2019-04-11T12:12:37.995Z,25.88
2019-04-11T12:15:31.325Z,25.67
2019-04-11T12:18:21.648Z,23.95
2019-04-11T12:21:01.251Z,24.96
2019-04-11T12:23:56.279Z,24.61
2019-04-11T12:26:16.798Z,22.43
2019-04-11T12:29:04.547Z,22.94
2019-04-11T12:31:34.988Z,22.86
2019-04-11T12:34:24.730Z,23.02
2019-04-11T12:36:53.323Z,22.67
2019-04-11T12:39:49.647Z,23.64
2019-04-11T12:42:19.501Z,22.40
2019-04-11T12:45:06.410Z,23.41
2019-04-11T12:47:38.502Z,23.20
2019-04-11T12:50:29.080Z,21.54
2019-04-11T12:53:03.401Z,21.05
2019-04-11T12:55:49.085Z,22.01
2019-04-11T12:58:41.799Z,22.80
2019-04-11T13:01:32.438Z,23.25
2019-04-11T13:04:30.944Z,23.18
2019-04-11T13:07:32.506Z,24.09
2019-04-11T13:10:11.852Z,20.40
2019-04-11T13:13:38.837Z,22.50
2019-04-11T13:16:12.896Z,22.72
2019-04-11T13:19:02.204Z,22.84
2019-04-11T13:21:46.213Z,21.81
2019-04-11T13:24:31.564Z,24.21
2019-04-11T13:27:36.339Z,24.11
2019-04-11T13:30:22.986Z,24.35
2019-04-11T13:33:05.503Z,22.90
2019-04-11T13:35:39.818Z,23.25
2019-04-11T13:38:17.317Z,22.50
2019-04-11T13:41:04.083Z,21.16
2019-04-11T13:43:57.210Z,22.93
2019-04-11T13:46:46.452Z,24.12
2019-04-11T13:49:36.338Z,21.91
2019-04-11T13:52:31.296Z,21.03
2019-04-11T13:55:01.953Z,21.72
2019-04-11T13:57:58.032Z,24.04
2019-04-11T14:00:45.503Z,26.55
2019-04-11T14:03:41.498Z,25.73
2019-04-11T14:06:15.414Z,25.29
2019-04-11T14:09:22.299Z,25.03
2019-04-11T14:11:51.362Z,23.91
2019-04-11T14:14:21.502Z,25.41
2019-04-11T14:16:58.425Z,25.49
2019-04-11T14:19:45.448Z,25.44
2019-04-11T14:22:13.760Z,24.88
2019-04-11T14:25:11.429Z,23.03
2019-04-11T14:27:36.816Z,23.40
2019-04-11T14:30:33.002Z,23.94
2019-04-11T14:33:01.046Z,24.86
2019-04-11T14:35:39.293Z,25.45
2019-04-11T14:38:16.448Z,24.68
2019-04-11T14:41:09.835Z,23.22
2019-04-11T14:43:43.809Z,25.54
2019-04-11T14:46:29.749Z,26.05
2019-04-11T14:49:05.679Z,23.49
2019-04-11T14:51:59.316Z,22.83
2019-04-11T14:54:33.212Z,22.25
2019-04-11T14:57:24.278Z,24.01
2019-04-11T14:59:59.034Z,23.67
2019-04-11T15:02:50.051Z,24.97
2019-04-11T15:05:39.852Z,24.40
2019-04-11T15:08:08.749Z,24.34
2019-04-11T15:11:09.694Z,26.25
2019-04-11T15:13:37.933Z,24.54
2019-04-11T15:16:30.810Z,24.85
2019-04-11T15:19:00.383Z,25.05
2019-04-11T15:21:45.988Z,25.38
2019-04-11T15:24:15.877Z,27.01
2019-04-11T15:27:01.387Z,25.35
2019-04-11T15:29:36.503Z,24.60
2019-04-11T15:32:22.294Z,25.81
2019-04-11T15:34:58.490Z,27.80
2019-04-11T15:37:51.219Z,26.85
2019-04-11T15:40:21.823Z,27.08
2019-04-11T15:43:14.288Z,26.71
2019-04-11T15:45:51.789Z,26.23
2019-04-11T15:48:36.809Z,25.50
2019-04-11T15:51:23.498Z,26.14
2019-04-11T15:54:15.989Z,26.68
2019-04-11T15:56:51.962Z,27.28
2019-04-11T15:59:38.909Z,28.14
2019-04-11T16:02:16.078Z,28.23
2019-04-11T16:05:07.949Z,28.07
2019-04-11T16:08:12.744Z,27.93
2019-04-11T16:10:48.111Z,27.59
2019-04-11T16:13:32.769Z,27.00
2019-04-11T16:16:06.805Z,27.36
2019-04-11T16:18:48.335Z,24.91
2019-04-11T16:21:23.936Z,25.10
2019-04-11T16:24:01.384Z,27.21
2019-04-11T16:26:40.757Z,27.26
2019-04-11T16:29:20.650Z,26.44
2019-04-11T16:31:47.771Z,27.79
2019-04-11T16:34:48.749Z,26.89
2019-04-11T16:37:17.581Z,26.84
2019-04-11T16:40:00.786Z,26.99
2019-04-11T16:42:42.639Z,27.53
2019-04-11T16:45:38.477Z,27.82
2019-04-11T16:48:06.062Z,28.78
2019-04-11T16:50:33.116Z,29.27
2019-04-11T16:53:00.396Z,29.30
2019-04-11T16:55:27.782Z,29.39
2019-04-11T16:57:55.243Z,30.17
2019-04-11T17:00:22.405Z,30.31
2019-04-11T17:02:49.721Z,29.26
2019-04-11T17:05:16.772Z,29.04
2019-04-11T17:07:56.746Z,30.38
2019-04-11T17:10:43.395Z,30.04
2019-04-11T17:13:13.110Z,30.42
2019-04-11T17:15:40.364Z,30.92
2019-04-11T17:18:07.523Z,31.26
2019-04-11T17:20:36.150Z,30.61
2019-04-11T17:23:07.476Z,30.67
2019-04-11T17:25:34.975Z,31.21
2019-04-11T17:28:02.259Z,32.23
2019-04-11T17:30:29.554Z,31.18
2019-04-11T17:32:57.962Z,31.76
2019-04-11T17:35:25.273Z,32.44
2019-04-11T17:37:52.775Z,32.37
2019-04-11T17:40:21.227Z,32.95
2019-04-11T17:42:48.399Z,33.13
2019-04-11T17:45:15.607Z,33.52
2019-04-11T17:47:44.927Z,33.84
2019-04-11T17:50:12.896Z,34.48
2019-04-11T17:52:43.001Z,34.58
2019-04-11T17:55:11.209Z,34.73
2019-04-11T17:57:40.865Z,35.03
2019-04-11T18:00:12.047Z,35.31
2019-04-11T18:02:41.495Z,35.27
2019-04-11T18:05:08.953Z,35.73
2019-04-11T18:07:38.317Z,36.25
2019-04-11T18:10:05.820Z,36.68
2019-04-11T18:12:34.413Z,36.59
2019-04-11T18:15:03.497Z,36.77
2019-04-11T18:17:32.721Z,36.96
2019-04-11T18:20:00.559Z,37.04
2019-04-11T18:22:29.547Z,37.05
2019-04-11T18:24:57.747Z,37.14
2019-04-11T18:27:24.902Z,37.62
2019-04-11T18:29:53.644Z,37.87
2019-04-11T18:32:22.645Z,37.81
2019-04-11T18:34:52.824Z,37.67
2019-04-11T18:37:19.955Z,38.26
2019-04-11T18:39:49.340Z,38.39
2019-04-11T18:42:16.529Z,38.28
2019-04-11T18:44:43.603Z,37.96
2019-04-11T18:47:10.724Z,38.18
2019-04-11T18:49:46.335Z,37.98
2019-04-11T18:52:19.975Z,38.32
2019-04-11T18:54:44.288Z,38.65
2019-04-11T18:57:13.289Z,38.48
2019-04-11T18:59:40.778Z,38.74
2019-04-11T19:02:09.950Z,38.32
2019-04-11T19:04:36.953Z,38.10
2019-04-11T19:07:05.126Z,38.33
2019-04-11T19:09:34.449Z,39.01
2019-04-11T19:12:04.921Z,38.91
2019-04-11T19:14:32.417Z,39.27
2019-04-11T19:17:01.659Z,39.14
2019-04-11T19:19:33.679Z,39.56
2019-04-11T19:22:00.837Z,39.82
2019-04-11T19:24:43.156Z,39.63
2019-04-11T19:27:14.055Z,39.83
2019-04-11T19:29:41.508Z,40.19
2019-04-11T19:32:08.626Z,40.26
2019-04-11T19:34:41.116Z,40.17
2019-04-11T19:37:11.797Z,40.22
2019-04-11T19:39:37.612Z,40.56
2019-04-11T19:42:08.872Z,40.41
2019-04-11T19:44:35.215Z,40.83
2019-04-11T19:47:02.567Z,41.07
2019-04-11T19:49:29.722Z,41.40
2019-04-11T19:51:58.665Z,41.18
2019-04-11T19:54:32.959Z,41.45
2019-04-11T19:57:04.949Z,41.68
2019-04-11T19:59:32.383Z,41.56
2019-04-11T20:02:00.227Z,41.77
2019-04-11T20:04:27.779Z,41.49
2019-04-11T20:06:55.423Z,42.16
2019-04-11T20:09:22.549Z,42.36
2019-04-11T20:11:49.767Z,42.28
2019-04-11T20:14:19.243Z,42.20
2019-04-11T20:16:48.908Z,42.07
2019-04-11T20:19:17.468Z,42.20
2019-04-11T20:21:44.935Z,42.32
2019-04-11T20:24:14.367Z,42.80
2019-04-11T20:26:41.130Z,42.44
2019-04-11T20:29:10.985Z,42.76
2019-04-11T20:31:38.278Z,43.03
2019-04-11T20:34:07.292Z,43.29
2019-04-11T20:36:40.782Z,43.18
2019-04-11T20:39:07.290Z,43.10
2019-04-11T20:41:34.711Z,43.30
2019-04-11T20:44:12.970Z,43.50
2019-04-11T20:46:40.269Z,43.46
2019-04-11T20:49:07.739Z,43.69
2019-04-11T20:51:35.069Z,43.75
2019-04-11T20:54:07.054Z,43.61
2019-04-11T20:56:34.623Z,43.90
2019-04-11T20:59:01.700Z,44.07
2019-04-11T21:01:28.790Z,43.60
2019-04-11T21:04:00.115Z,44.25
2019-04-11T21:06:26.116Z,44.16
2019-04-11T21:08:53.167Z,44.42
2019-04-11T21:11:20.338Z,44.10
2019-04-11T21:13:47.399Z,44.48
2019-04-11T21:16:14.449Z,44.62
2019-04-11T21:18:41.758Z,44.62
2019-04-11T21:21:08.820Z,44.41
2019-04-11T21:23:35.835Z,44.81
2019-04-11T21:26:03.327Z,44.99
2019-04-11T21:28:30.947Z,45.14
2019-04-11T21:31:00.090Z,45.18
2019-04-11T21:33:28.849Z,45.16
2019-04-11T21:36:01.422Z,45.19
2019-04-11T21:38:30.855Z,45.63
2019-04-11T21:40:59.495Z,45.79
2019-04-11T21:43:26.549Z,45.78
2019-04-11T21:45:55.430Z,45.94
2019-04-11T21:48:23.235Z,45.88
2019-04-11T21:50:50.573Z,45.99
2019-04-11T21:53:17.676Z,45.60
2019-04-11T21:55:47.315Z,46.40
2019-04-11T21:58:19.447Z,46.23
2019-04-11T22:00:51.786Z,46.17
2019-04-11T22:03:23.999Z,46.16
2019-04-11T22:05:49.142Z,46.39
2019-04-11T22:08:16.406Z,46.61
2019-04-11T22:10:43.442Z,46.88
2019-04-11T22:13:10.835Z,46.70
2019-04-11T22:15:42.045Z,47.10
2019-04-11T22:18:07.373Z,47.24
2019-04-11T22:20:34.525Z,47.46
2019-04-11T22:23:01.712Z,47.34
2019-04-11T22:25:28.751Z,47.22
2019-04-11T22:27:57.222Z,47.31
2019-04-11T22:30:25.404Z,47.71
2019-04-11T22:33:00.993Z,47.59
2019-04-11T22:35:29.110Z,47.84
2019-04-11T22:37:59.680Z,47.64
2019-04-11T22:40:25.994Z,47.67
2019-04-11T22:42:53.178Z,47.64
2019-04-11T22:45:20.201Z,47.95
2019-04-11T22:47:47.254Z,48.05
2019-04-11T22:50:14.294Z,48.17
2019-04-11T22:52:43.999Z,48.48
2019-04-11T22:55:11.856Z,48.49
2019-04-11T22:57:40.888Z,48.53
2019-04-11T23:00:09.624Z,48.59
2019-04-11T23:02:48.939Z,48.81
2019-04-11T23:05:17.427Z,48.91
2019-04-11T23:07:45.934Z,49.16
2019-04-11T23:10:17.117Z,49.21
2019-04-11T23:12:45.787Z,49.44
2019-04-11T23:15:15.195Z,49.46
2019-04-11T23:17:43.933Z,49.60
2019-04-11T23:20:11.922Z,49.75
2019-04-11T23:22:42.803Z,49.89
2019-04-11T23:25:09.456Z,50.03
2019-04-11T23:27:36.530Z,50.18
2019-04-11T23:30:04.588Z,50.12
2019-04-11T23:32:32.966Z,50.29
2019-04-11T23:35:00.029Z,50.33
2019-04-11T23:37:27.083Z,50.65
2019-04-11T23:39:54.142Z,50.31
2019-04-11T23:42:22.974Z,50.54
2019-04-11T23:44:50.476Z,50.23
2019-04-11T23:47:20.091Z,50.19
2019-04-11T23:49:49.626Z,50.32
2019-04-11T23:52:16.957Z,50.32
2019-04-11T23:54:44.042Z,50.42
2019-04-11T23:57:11.078Z,50.29
2019-04-11T23:59:40.029Z,50.50
